sensor_id;sensor_type;location;lat;lon;timestamp;P1;durP1;ratioP1;P2;durP2;ratioP2
20369;SDS011;10344;47.592;9.600;2023-03-05T00:01:03;35.53;;;22.25;;
20369;SDS011;10344;47.592;9.600;2023-03-05T00:03:49;38.17;;;24.45;;
20369;SDS011;10344;47.592;9.600;2023-03-05T00:06:19;38.40;;;23.98;;
20369;SDS011;10344;47.592;9.600;2023-03-05T00:08:50;37.00;;;24.23;;
20369;SDS011;10344;47.592;9.600;2023-03-05T00:11:26;36.70;;;24.25;;
20369;SDS011;10344;47.592;9.600;2023-03-05T00:14:28;40.45;;;24.83;;
20369;SDS011;10344;47.592;9.600;2023-03-05T00:17:22;38.55;;;24.52;;
20369;SDS011;10344;47.592;9.600;2023-03-05T00:19:57;38.07;;;24.37;;
20369;SDS011;10344;47.592;9.600;2023-03-05T00:22:25;39.95;;;25.83;;
20369;SDS011;10344;47.592;9.600;2023-03-05T00:24:51;38.78;;;24.65;;
20369;SDS011;10344;47.592;9.600;2023-03-05T00:27:17;38.87;;;24.10;;
20369;SDS011;10344;47.592;9.600;2023-03-05T00:29:45;38.65;;;24.27;;
20369;SDS011;10344;47.592;9.600;2023-03-05T00:32:16;37.58;;;23.23;;
20369;SDS011;10344;47.592;9.600;2023-03-05T00:34:43;38.67;;;24.63;;
20369;SDS011;10344;47.592;9.600;2023-03-05T00:37:08;39.03;;;24.48;;
20369;SDS011;10344;47.592;9.600;2023-03-05T00:39:34;36.10;;;23.23;;
20369;SDS011;10344;47.592;9.600;2023-03-05T00:42:05;38.20;;;23.42;;
20369;SDS011;10344;47.592;9.600;2023-03-05T00:44:33;36.15;;;22.27;;
20369;SDS011;10344;47.592;9.600;2023-03-05T00:47:01;36.78;;;24.02;;
20369;SDS011;10344;47.592;9.600;2023-03-05T00:49:29;39.17;;;24.20;;
20369;SDS011;10344;47.592;9.600;2023-03-05T00:51:57;38.70;;;24.67;;
20369;SDS011;10344;47.592;9.600;2023-03-05T00:54:23;38.88;;;25.17;;
20369;SDS011;10344;47.592;9.600;2023-03-05T00:56:48;37.33;;;24.47;;
20369;SDS011;10344;47.592;9.600;2023-03-05T00:59:14;37.90;;;23.33;;
20369;SDS011;10344;47.592;9.600;2023-03-05T01:01:39;36.75;;;24.00;;
20369;SDS011;10344;47.592;9.600;2023-03-05T01:04:13;40.55;;;25.70;;
20369;SDS011;10344;47.592;9.600;2023-03-05T01:06:45;38.90;;;24.65;;
20369;SDS011;10344;47.592;9.600;2023-03-05T01:09:18;37.53;;;24.55;;
20369;SDS011;10344;47.592;9.600;2023-03-05T01:11:54;36.38;;;23.30;;
20369;SDS011;10344;47.592;9.600;2023-03-05T01:14:20;38.47;;;24.42;;
20369;SDS011;10344;47.592;9.600;2023-03-05T01:16:54;38.85;;;24.95;;
20369;SDS011;10344;47.592;9.600;2023-03-05T01:19:21;44.65;;;27.60;;
20369;SDS011;10344;47.592;9.600;2023-03-05T01:21:49;43.08;;;26.27;;
20369;SDS011;10344;47.592;9.600;2023-03-05T01:24:16;45.58;;;28.23;;
20369;SDS011;10344;47.592;9.600;2023-03-05T01:26:42;39.10;;;25.73;;
20369;SDS011;10344;47.592;9.600;2023-03-05T01:29:11;39.25;;;25.60;;
20369;SDS011;10344;47.592;9.600;2023-03-05T01:31:40;41.33;;;26.17;;
20369;SDS011;10344;47.592;9.600;2023-03-05T01:34:15;40.85;;;24.73;;
20369;SDS011;10344;47.592;9.600;2023-03-05T01:36:45;39.90;;;24.75;;
20369;SDS011;10344;47.592;9.600;2023-03-05T01:39:13;40.93;;;25.77;;
20369;SDS011;10344;47.592;9.600;2023-03-05T01:41:40;40.78;;;24.90;;
20369;SDS011;10344;47.592;9.600;2023-03-05T01:44:14;42.25;;;25.23;;
20369;SDS011;10344;47.592;9.600;2023-03-05T01:46:45;41.10;;;26.60;;
20369;SDS011;10344;47.592;9.600;2023-03-05T01:52:04;40.95;;;25.23;;
20369;SDS011;10344;47.592;9.600;2023-03-05T02:00:27;42.05;;;27.02;;
20369;SDS011;10344;47.592;9.600;2023-03-05T02:02:59;40.00;;;25.42;;
20369;SDS011;10344;47.592;9.600;2023-03-05T02:05:29;40.92;;;25.02;;
20369;SDS011;10344;47.592;9.600;2023-03-05T02:08:06;43.65;;;26.00;;
20369;SDS011;10344;47.592;9.600;2023-03-05T02:10:38;41.10;;;24.90;;
20369;SDS011;10344;47.592;9.600;2023-03-05T02:13:11;39.25;;;25.25;;
20369;SDS011;10344;47.592;9.600;2023-03-05T02:15:41;41.38;;;25.40;;
20369;SDS011;10344;47.592;9.600;2023-03-05T02:18:14;42.20;;;26.17;;
20369;SDS011;10344;47.592;9.600;2023-03-05T02:23:18;37.55;;;24.13;;
20369;SDS011;10344;47.592;9.600;2023-03-05T02:25:53;42.92;;;26.13;;
20369;SDS011;10344;47.592;9.600;2023-03-05T02:31:12;35.88;;;23.98;;
20369;SDS011;10344;47.592;9.600;2023-03-05T02:33:43;39.10;;;25.20;;
20369;SDS011;10344;47.592;9.600;2023-03-05T02:36:09;39.83;;;24.98;;
20369;SDS011;10344;47.592;9.600;2023-03-05T02:38:37;39.58;;;25.35;;
20369;SDS011;10344;47.592;9.600;2023-03-05T02:41:03;40.25;;;24.65;;
20369;SDS011;10344;47.592;9.600;2023-03-05T02:43:30;41.55;;;25.42;;
20369;SDS011;10344;47.592;9.600;2023-03-05T02:45:55;41.30;;;24.97;;
20369;SDS011;10344;47.592;9.600;2023-03-05T02:48:21;40.15;;;26.50;;
20369;SDS011;10344;47.592;9.600;2023-03-05T02:50:46;41.73;;;25.93;;
20369;SDS011;10344;47.592;9.600;2023-03-05T02:53:13;40.55;;;25.50;;
20369;SDS011;10344;47.592;9.600;2023-03-05T02:55:38;45.83;;;27.57;;
20369;SDS011;10344;47.592;9.600;2023-03-05T02:58:06;46.00;;;27.42;;
20369;SDS011;10344;47.592;9.600;2023-03-05T03:00:33;39.00;;;24.60;;
20369;SDS011;10344;47.592;9.600;2023-03-05T03:02:59;39.08;;;24.60;;
20369;SDS011;10344;47.592;9.600;2023-03-05T03:05:27;42.22;;;27.17;;
20369;SDS011;10344;47.592;9.600;2023-03-05T03:07:55;43.47;;;27.20;;
20369;SDS011;10344;47.592;9.600;2023-03-05T03:10:21;41.05;;;27.10;;
20369;SDS011;10344;47.592;9.600;2023-03-05T03:12:50;39.22;;;25.95;;
20369;SDS011;10344;47.592;9.600;2023-03-05T03:15:15;46.65;;;28.33;;
20369;SDS011;10344;47.592;9.600;2023-03-05T03:17:44;41.75;;;26.13;;
20369;SDS011;10344;47.592;9.600;2023-03-05T03:20:11;44.45;;;26.30;;
20369;SDS011;10344;47.592;9.600;2023-03-05T03:22:49;42.05;;;25.52;;
20369;SDS011;10344;47.592;9.600;2023-03-05T03:26:03;41.20;;;26.92;;
20369;SDS011;10344;47.592;9.600;2023-03-05T03:28:54;44.07;;;25.70;;
20369;SDS011;10344;47.592;9.600;2023-03-05T03:31:21;41.03;;;25.65;;
20369;SDS011;10344;47.592;9.600;2023-03-05T03:33:53;41.75;;;26.98;;
20369;SDS011;10344;47.592;9.600;2023-03-05T03:36:25;42.53;;;25.77;;
20369;SDS011;10344;47.592;9.600;2023-03-05T03:38:54;40.83;;;25.85;;
20369;SDS011;10344;47.592;9.600;2023-03-05T03:41:20;42.88;;;27.27;;
20369;SDS011;10344;47.592;9.600;2023-03-05T03:43:48;41.65;;;26.23;;
20369;SDS011;10344;47.592;9.600;2023-03-05T03:46:13;42.23;;;27.00;;
20369;SDS011;10344;47.592;9.600;2023-03-05T03:48:43;44.42;;;27.48;;
20369;SDS011;10344;47.592;9.600;2023-03-05T03:51:08;42.42;;;27.02;;
20369;SDS011;10344;47.592;9.600;2023-03-05T03:53:34;44.00;;;26.20;;
20369;SDS011;10344;47.592;9.600;2023-03-05T03:55:59;44.27;;;26.30;;
20369;SDS011;10344;47.592;9.600;2023-03-05T03:58:33;38.25;;;24.63;;
20369;SDS011;10344;47.592;9.600;2023-03-05T04:00:59;44.15;;;27.88;;
20369;SDS011;10344;47.592;9.600;2023-03-05T04:03:27;42.60;;;25.73;;
20369;SDS011;10344;47.592;9.600;2023-03-05T04:05:52;40.75;;;25.63;;
20369;SDS011;10344;47.592;9.600;2023-03-05T04:08:18;40.40;;;24.93;;
20369;SDS011;10344;47.592;9.600;2023-03-05T04:10:49;43.17;;;27.42;;
20369;SDS011;10344;47.592;9.600;2023-03-05T04:13:15;41.27;;;26.63;;
20369;SDS011;10344;47.592;9.600;2023-03-05T04:15:41;44.17;;;25.75;;
20369;SDS011;10344;47.592;9.600;2023-03-05T04:18:08;37.77;;;24.20;;
20369;SDS011;10344;47.592;9.600;2023-03-05T04:20:36;39.88;;;25.33;;
20369;SDS011;10344;47.592;9.600;2023-03-05T04:23:04;38.25;;;24.83;;
20369;SDS011;10344;47.592;9.600;2023-03-05T04:25:36;40.57;;;26.03;;
20369;SDS011;10344;47.592;9.600;2023-03-05T04:28:01;44.03;;;27.13;;
20369;SDS011;10344;47.592;9.600;2023-03-05T04:30:27;40.67;;;25.10;;
20369;SDS011;10344;47.592;9.600;2023-03-05T04:33:05;37.75;;;25.20;;
20369;SDS011;10344;47.592;9.600;2023-03-05T04:35:33;37.38;;;23.60;;
20369;SDS011;10344;47.592;9.600;2023-03-05T04:37:59;41.05;;;25.27;;
20369;SDS011;10344;47.592;9.600;2023-03-05T04:40:25;44.30;;;27.40;;
20369;SDS011;10344;47.592;9.600;2023-03-05T04:42:50;41.50;;;24.87;;
20369;SDS011;10344;47.592;9.600;2023-03-05T04:45:16;43.63;;;26.70;;
20369;SDS011;10344;47.592;9.600;2023-03-05T04:47:42;41.27;;;25.57;;
20369;SDS011;10344;47.592;9.600;2023-03-05T04:50:08;41.75;;;26.50;;
20369;SDS011;10344;47.592;9.600;2023-03-05T04:52:37;41.58;;;26.15;;
20369;SDS011;10344;47.592;9.600;2023-03-05T04:55:07;42.88;;;26.50;;
20369;SDS011;10344;47.592;9.600;2023-03-05T04:57:34;38.60;;;24.13;;
20369;SDS011;10344;47.592;9.600;2023-03-05T05:00:11;40.47;;;26.23;;
20369;SDS011;10344;47.592;9.600;2023-03-05T05:02:42;40.60;;;25.90;;
20369;SDS011;10344;47.592;9.600;2023-03-05T05:05:15;43.83;;;26.75;;
20369;SDS011;10344;47.592;9.600;2023-03-05T05:07:45;44.50;;;26.93;;
20369;SDS011;10344;47.592;9.600;2023-03-05T05:10:11;44.35;;;26.20;;
20369;SDS011;10344;47.592;9.600;2023-03-05T05:12:38;43.03;;;26.67;;
20369;SDS011;10344;47.592;9.600;2023-03-05T05:15:04;40.80;;;26.25;;
20369;SDS011;10344;47.592;9.600;2023-03-05T05:17:31;36.47;;;22.85;;
20369;SDS011;10344;47.592;9.600;2023-03-05T05:20:03;42.67;;;25.52;;
20369;SDS011;10344;47.592;9.600;2023-03-05T05:22:35;41.40;;;26.77;;
20369;SDS011;10344;47.592;9.600;2023-03-05T05:25:01;41.17;;;25.35;;
20369;SDS011;10344;47.592;9.600;2023-03-05T05:27:32;42.60;;;25.17;;
20369;SDS011;10344;47.592;9.600;2023-03-05T05:29:58;42.67;;;25.42;;
20369;SDS011;10344;47.592;9.600;2023-03-05T05:32:24;41.40;;;25.75;;
20369;SDS011;10344;47.592;9.600;2023-03-05T05:34:57;39.60;;;26.27;;
20369;SDS011;10344;47.592;9.600;2023-03-05T05:37:24;41.30;;;25.83;;
20369;SDS011;10344;47.592;9.600;2023-03-05T05:39:50;42.72;;;26.58;;
20369;SDS011;10344;47.592;9.600;2023-03-05T05:42:22;42.33;;;25.90;;
20369;SDS011;10344;47.592;9.600;2023-03-05T05:44:53;42.50;;;25.55;;
20369;SDS011;10344;47.592;9.600;2023-03-05T05:47:19;44.35;;;27.38;;
20369;SDS011;10344;47.592;9.600;2023-03-05T05:49:48;43.72;;;26.35;;
20369;SDS011;10344;47.592;9.600;2023-03-05T05:52:19;42.28;;;26.63;;
20369;SDS011;10344;47.592;9.600;2023-03-05T05:54:47;42.83;;;26.00;;
20369;SDS011;10344;47.592;9.600;2023-03-05T05:57:23;43.63;;;26.85;;
20369;SDS011;10344;47.592;9.600;2023-03-05T05:59:49;40.87;;;25.63;;
20369;SDS011;10344;47.592;9.600;2023-03-05T06:02:15;41.65;;;27.45;;
20369;SDS011;10344;47.592;9.600;2023-03-05T06:04:40;44.73;;;27.70;;
20369;SDS011;10344;47.592;9.600;2023-03-05T06:07:10;42.25;;;26.52;;
20369;SDS011;10344;47.592;9.600;2023-03-05T06:09:36;44.80;;;28.10;;
20369;SDS011;10344;47.592;9.600;2023-03-05T06:12:02;43.75;;;26.50;;
20369;SDS011;10344;47.592;9.600;2023-03-05T06:14:28;43.15;;;26.58;;
20369;SDS011;10344;47.592;9.600;2023-03-05T06:16:53;43.23;;;26.40;;
20369;SDS011;10344;47.592;9.600;2023-03-05T06:19:19;39.72;;;25.75;;
20369;SDS011;10344;47.592;9.600;2023-03-05T06:21:47;44.33;;;28.13;;
20369;SDS011;10344;47.592;9.600;2023-03-05T06:24:14;42.10;;;26.45;;
20369;SDS011;10344;47.592;9.600;2023-03-05T06:26:40;46.55;;;28.58;;
20369;SDS011;10344;47.592;9.600;2023-03-05T06:29:08;43.40;;;26.53;;
20369;SDS011;10344;47.592;9.600;2023-03-05T06:31:39;46.08;;;27.48;;
20369;SDS011;10344;47.592;9.600;2023-03-05T06:34:07;46.67;;;29.13;;
20369;SDS011;10344;47.592;9.600;2023-03-05T06:36:34;42.67;;;27.00;;
20369;SDS011;10344;47.592;9.600;2023-03-05T06:38:59;46.93;;;28.63;;
20369;SDS011;10344;47.592;9.600;2023-03-05T06:41:28;44.78;;;27.65;;
20369;SDS011;10344;47.592;9.600;2023-03-05T06:44:03;45.05;;;28.33;;
20369;SDS011;10344;47.592;9.600;2023-03-05T06:46:30;43.57;;;28.37;;
20369;SDS011;10344;47.592;9.600;2023-03-05T06:48:59;41.88;;;26.80;;
20369;SDS011;10344;47.592;9.600;2023-03-05T06:51:34;43.75;;;27.67;;
20369;SDS011;10344;47.592;9.600;2023-03-05T06:54:06;41.95;;;27.10;;
20369;SDS011;10344;47.592;9.600;2023-03-05T06:56:37;40.42;;;26.02;;
20369;SDS011;10344;47.592;9.600;2023-03-05T06:59:05;44.83;;;26.75;;
20369;SDS011;10344;47.592;9.600;2023-03-05T07:01:31;41.53;;;26.08;;
20369;SDS011;10344;47.592;9.600;2023-03-05T07:03:56;46.45;;;29.60;;
20369;SDS011;10344;47.592;9.600;2023-03-05T07:06:24;44.97;;;27.92;;
20369;SDS011;10344;47.592;9.600;2023-03-05T07:08:58;44.60;;;27.80;;
20369;SDS011;10344;47.592;9.600;2023-03-05T07:11:52;48.72;;;30.55;;
20369;SDS011;10344;47.592;9.600;2023-03-05T07:17:14;45.85;;;28.90;;
20369;SDS011;10344;47.592;9.600;2023-03-05T07:19:53;49.57;;;29.63;;
20369;SDS011;10344;47.592;9.600;2023-03-05T07:22:43;49.20;;;29.77;;
20369;SDS011;10344;47.592;9.600;2023-03-05T07:25:12;45.38;;;28.90;;
20369;SDS011;10344;47.592;9.600;2023-03-05T07:27:38;45.70;;;28.20;;
20369;SDS011;10344;47.592;9.600;2023-03-05T07:30:18;44.70;;;27.90;;
20369;SDS011;10344;47.592;9.600;2023-03-05T07:32:50;44.42;;;28.27;;
20369;SDS011;10344;47.592;9.600;2023-03-05T07:35:25;43.72;;;27.27;;
20369;SDS011;10344;47.592;9.600;2023-03-05T07:37:59;43.78;;;27.00;;
20369;SDS011;10344;47.592;9.600;2023-03-05T07:40:28;43.58;;;27.60;;
20369;SDS011;10344;47.592;9.600;2023-03-05T07:43:06;45.83;;;27.73;;
20369;SDS011;10344;47.592;9.600;2023-03-05T07:45:34;40.20;;;26.42;;
20369;SDS011;10344;47.592;9.600;2023-03-05T07:48:13;40.67;;;25.90;;
20369;SDS011;10344;47.592;9.600;2023-03-05T07:50:52;44.63;;;27.25;;
20369;SDS011;10344;47.592;9.600;2023-03-05T07:53:49;49.75;;;29.65;;
20369;SDS011;10344;47.592;9.600;2023-03-05T07:59:17;44.10;;;27.00;;
20369;SDS011;10344;47.592;9.600;2023-03-05T08:01:48;44.65;;;26.83;;
20369;SDS011;10344;47.592;9.600;2023-03-05T08:04:37;43.70;;;26.48;;
20369;SDS011;10344;47.592;9.600;2023-03-05T08:07:14;40.58;;;24.95;;
20369;SDS011;10344;47.592;9.600;2023-03-05T08:09:43;34.67;;;22.02;;
20369;SDS011;10344;47.592;9.600;2023-03-05T08:12:16;38.80;;;24.20;;
20369;SDS011;10344;47.592;9.600;2023-03-05T08:14:41;35.05;;;22.08;;
20369;SDS011;10344;47.592;9.600;2023-03-05T08:17:13;36.40;;;22.40;;
20369;SDS011;10344;47.592;9.600;2023-03-05T08:19:50;39.28;;;25.15;;
20369;SDS011;10344;47.592;9.600;2023-03-05T08:22:19;37.10;;;23.27;;
20369;SDS011;10344;47.592;9.600;2023-03-05T08:24:48;38.60;;;24.13;;
20369;SDS011;10344;47.592;9.600;2023-03-05T08:27:14;38.05;;;23.40;;
20369;SDS011;10344;47.592;9.600;2023-03-05T08:29:43;43.25;;;26.52;;
20369;SDS011;10344;47.592;9.600;2023-03-05T08:32:15;40.22;;;24.48;;
20369;SDS011;10344;47.592;9.600;2023-03-05T08:34:45;42.07;;;26.17;;
20369;SDS011;10344;47.592;9.600;2023-03-05T08:37:14;41.33;;;25.05;;
20369;SDS011;10344;47.592;9.600;2023-03-05T08:39:42;41.45;;;25.05;;
20369;SDS011;10344;47.592;9.600;2023-03-05T08:42:10;39.23;;;24.73;;
20369;SDS011;10344;47.592;9.600;2023-03-05T08:44:35;42.83;;;25.60;;
20369;SDS011;10344;47.592;9.600;2023-03-05T08:47:01;42.27;;;25.93;;
20369;SDS011;10344;47.592;9.600;2023-03-05T08:49:36;37.33;;;24.63;;
20369;SDS011;10344;47.592;9.600;2023-03-05T08:52:01;37.67;;;24.17;;
20369;SDS011;10344;47.592;9.600;2023-03-05T08:54:38;39.90;;;24.70;;
20369;SDS011;10344;47.592;9.600;2023-03-05T08:57:04;40.03;;;24.97;;
20369;SDS011;10344;47.592;9.600;2023-03-05T08:59:32;43.40;;;25.58;;
20369;SDS011;10344;47.592;9.600;2023-03-05T09:02:01;39.38;;;24.25;;
20369;SDS011;10344;47.592;9.600;2023-03-05T09:04:29;36.13;;;22.90;;
20369;SDS011;10344;47.592;9.600;2023-03-05T09:06:56;39.72;;;24.10;;
20369;SDS011;10344;47.592;9.600;2023-03-05T09:09:22;39.42;;;24.20;;
20369;SDS011;10344;47.592;9.600;2023-03-05T09:11:48;36.05;;;22.08;;
20369;SDS011;10344;47.592;9.600;2023-03-05T09:14:23;34.85;;;22.42;;
20369;SDS011;10344;47.592;9.600;2023-03-05T09:16:49;36.88;;;23.58;;
20369;SDS011;10344;47.592;9.600;2023-03-05T09:19:14;39.37;;;24.77;;
20369;SDS011;10344;47.592;9.600;2023-03-05T09:21:47;42.77;;;26.30;;
20369;SDS011;10344;47.592;9.600;2023-03-05T09:24:17;36.95;;;24.02;;
20369;SDS011;10344;47.592;9.600;2023-03-05T09:26:45;39.05;;;24.02;;
20369;SDS011;10344;47.592;9.600;2023-03-05T09:29:11;36.63;;;23.30;;
20369;SDS011;10344;47.592;9.600;2023-03-05T09:31:36;40.10;;;24.67;;
20369;SDS011;10344;47.592;9.600;2023-03-05T09:34:03;37.83;;;24.33;;
20369;SDS011;10344;47.592;9.600;2023-03-05T09:36:35;37.42;;;23.65;;
20369;SDS011;10344;47.592;9.600;2023-03-05T09:39:01;38.42;;;24.30;;
20369;SDS011;10344;47.592;9.600;2023-03-05T09:56:42;40.40;;;25.87;;
20369;SDS011;10344;47.592;9.600;2023-03-05T10:02:23;38.35;;;24.70;;
20369;SDS011;10344;47.592;9.600;2023-03-05T10:04:56;39.03;;;25.05;;
20369;SDS011;10344;47.592;9.600;2023-03-05T10:07:58;41.07;;;24.97;;
20369;SDS011;10344;47.592;9.600;2023-03-05T10:10:41;38.67;;;24.63;;
20369;SDS011;10344;47.592;9.600;2023-03-05T10:22:32;38.40;;;25.73;;
20369;SDS011;10344;47.592;9.600;2023-03-05T10:33:58;40.38;;;26.05;;
20369;SDS011;10344;47.592;9.600;2023-03-05T10:40:00;43.05;;;26.20;;
20369;SDS011;10344;47.592;9.600;2023-03-05T10:45:37;41.60;;;26.23;;
20369;SDS011;10344;47.592;9.600;2023-03-05T10:48:54;41.00;;;27.17;;
20369;SDS011;10344;47.592;9.600;2023-03-05T10:52:21;40.88;;;25.85;;
20369;SDS011;10344;47.592;9.600;2023-03-05T10:55:15;41.20;;;26.45;;
20369;SDS011;10344;47.592;9.600;2023-03-05T10:57:50;40.90;;;26.15;;
20369;SDS011;10344;47.592;9.600;2023-03-05T11:00:23;41.85;;;26.27;;
20369;SDS011;10344;47.592;9.600;2023-03-05T11:03:01;38.38;;;25.27;;
20369;SDS011;10344;47.592;9.600;2023-03-05T11:05:59;41.53;;;26.40;;
20369;SDS011;10344;47.592;9.600;2023-03-05T11:08:30;44.35;;;27.08;;
20369;SDS011;10344;47.592;9.600;2023-03-05T11:11:12;45.10;;;27.02;;
20369;SDS011;10344;47.592;9.600;2023-03-05T11:14:08;38.15;;;25.52;;
20369;SDS011;10344;47.592;9.600;2023-03-05T11:17:02;41.40;;;25.60;;
20369;SDS011;10344;47.592;9.600;2023-03-05T11:19:56;40.38;;;25.13;;
20369;SDS011;10344;47.592;9.600;2023-03-05T11:23:08;43.65;;;26.33;;
20369;SDS011;10344;47.592;9.600;2023-03-05T11:28:37;38.30;;;24.13;;
20369;SDS011;10344;47.592;9.600;2023-03-05T11:31:32;36.95;;;24.23;;
20369;SDS011;10344;47.592;9.600;2023-03-05T11:34:09;37.83;;;24.73;;
20369;SDS011;10344;47.592;9.600;2023-03-05T11:39:22;36.25;;;23.98;;
20369;SDS011;10344;47.592;9.600;2023-03-05T11:44:27;35.55;;;23.65;;
20369;SDS011;10344;47.592;9.600;2023-03-05T11:47:03;34.08;;;22.67;;
20369;SDS011;10344;47.592;9.600;2023-03-05T11:49:51;35.45;;;23.35;;
20369;SDS011;10344;47.592;9.600;2023-03-05T11:52:48;38.47;;;25.17;;
20369;SDS011;10344;47.592;9.600;2023-03-05T11:55:55;38.33;;;23.95;;
20369;SDS011;10344;47.592;9.600;2023-03-05T11:58:45;35.83;;;23.60;;
20369;SDS011;10344;47.592;9.600;2023-03-05T12:01:54;36.80;;;23.80;;
20369;SDS011;10344;47.592;9.600;2023-03-05T12:04:25;36.65;;;23.00;;
20369;SDS011;10344;47.592;9.600;2023-03-05T12:06:59;35.78;;;23.63;;
20369;SDS011;10344;47.592;9.600;2023-03-05T12:18:00;34.90;;;23.42;;
20369;SDS011;10344;47.592;9.600;2023-03-05T12:23:29;34.97;;;22.98;;
20369;SDS011;10344;47.592;9.600;2023-03-05T12:26:13;33.85;;;22.75;;
20369;SDS011;10344;47.592;9.600;2023-03-05T12:43:31;35.33;;;22.60;;
20369;SDS011;10344;47.592;9.600;2023-03-05T12:48:54;34.67;;;22.23;;
20369;SDS011;10344;47.592;9.600;2023-03-05T12:51:41;34.28;;;22.38;;
20369;SDS011;10344;47.592;9.600;2023-03-05T12:54:41;32.63;;;21.10;;
20369;SDS011;10344;47.592;9.600;2023-03-05T12:57:18;33.30;;;21.27;;
20369;SDS011;10344;47.592;9.600;2023-03-05T12:59:50;32.88;;;20.75;;
20369;SDS011;10344;47.592;9.600;2023-03-05T13:02:45;32.00;;;20.95;;
20369;SDS011;10344;47.592;9.600;2023-03-05T13:05:22;31.73;;;20.92;;
20369;SDS011;10344;47.592;9.600;2023-03-05T13:07:50;31.40;;;21.08;;
20369;SDS011;10344;47.592;9.600;2023-03-05T13:12:56;31.95;;;21.08;;
20369;SDS011;10344;47.592;9.600;2023-03-05T13:15:23;32.95;;;21.88;;
20369;SDS011;10344;47.592;9.600;2023-03-05T13:17:58;30.38;;;20.40;;
20369;SDS011;10344;47.592;9.600;2023-03-05T13:20:36;29.27;;;18.73;;
20369;SDS011;10344;47.592;9.600;2023-03-05T13:26:37;26.48;;;18.50;;
20369;SDS011;10344;47.592;9.600;2023-03-05T13:29:19;30.73;;;19.98;;
20369;SDS011;10344;47.592;9.600;2023-03-05T13:31:51;29.75;;;18.80;;
20369;SDS011;10344;47.592;9.600;2023-03-05T13:34:33;30.27;;;19.07;;
20369;SDS011;10344;47.592;9.600;2023-03-05T13:37:13;28.77;;;19.47;;
20369;SDS011;10344;47.592;9.600;2023-03-05T13:39:47;28.63;;;19.57;;
20369;SDS011;10344;47.592;9.600;2023-03-05T13:42:29;30.10;;;19.63;;
20369;SDS011;10344;47.592;9.600;2023-03-05T13:44:59;27.20;;;18.20;;
20369;SDS011;10344;47.592;9.600;2023-03-05T13:47:31;27.92;;;18.08;;
20369;SDS011;10344;47.592;9.600;2023-03-05T13:49:59;28.88;;;19.27;;
20369;SDS011;10344;47.592;9.600;2023-03-05T13:52:32;24.50;;;16.90;;
20369;SDS011;10344;47.592;9.600;2023-03-05T13:55:02;30.73;;;19.10;;
20369;SDS011;10344;47.592;9.600;2023-03-05T13:57:47;28.03;;;18.20;;
20369;SDS011;10344;47.592;9.600;2023-03-05T14:03:23;28.40;;;18.23;;
20369;SDS011;10344;47.592;9.600;2023-03-05T14:05:59;27.15;;;18.33;;
20369;SDS011;10344;47.592;9.600;2023-03-05T14:08:29;25.52;;;16.95;;
20369;SDS011;10344;47.592;9.600;2023-03-05T14:10:57;27.33;;;17.77;;
20369;SDS011;10344;47.592;9.600;2023-03-05T14:13:43;28.77;;;17.50;;
20369;SDS011;10344;47.592;9.600;2023-03-05T14:16:41;26.70;;;17.20;;
20369;SDS011;10344;47.592;9.600;2023-03-05T14:19:50;24.42;;;16.27;;
20369;SDS011;10344;47.592;9.600;2023-03-05T14:28:42;19.65;;;13.40;;
20369;SDS011;10344;47.592;9.600;2023-03-05T14:31:29;22.33;;;13.80;;
20369;SDS011;10344;47.592;9.600;2023-03-05T14:40:42;20.52;;;14.05;;
20369;SDS011;10344;47.592;9.600;2023-03-05T14:43:09;22.73;;;13.57;;
20369;SDS011;10344;47.592;9.600;2023-03-05T14:45:36;21.95;;;15.27;;
20369;SDS011;10344;47.592;9.600;2023-03-05T14:48:49;21.67;;;14.38;;
20369;SDS011;10344;47.592;9.600;2023-03-05T14:51:18;20.70;;;13.80;;
20369;SDS011;10344;47.592;9.600;2023-03-05T14:53:44;22.73;;;14.63;;
20369;SDS011;10344;47.592;9.600;2023-03-05T15:02:20;22.15;;;14.18;;
20369;SDS011;10344;47.592;9.600;2023-03-05T15:05:09;23.42;;;14.02;;
20369;SDS011;10344;47.592;9.600;2023-03-05T15:08:33;20.30;;;13.52;;
20369;SDS011;10344;47.592;9.600;2023-03-05T15:10:59;19.27;;;12.80;;
20369;SDS011;10344;47.592;9.600;2023-03-05T15:17:28;19.80;;;12.98;;
20369;SDS011;10344;47.592;9.600;2023-03-05T15:20:20;18.30;;;11.85;;
20369;SDS011;10344;47.592;9.600;2023-03-05T15:22:54;19.70;;;12.68;;
20369;SDS011;10344;47.592;9.600;2023-03-05T15:25:22;19.60;;;12.20;;
20369;SDS011;10344;47.592;9.600;2023-03-05T15:27:54;19.35;;;11.75;;
20369;SDS011;10344;47.592;9.600;2023-03-05T15:30:32;16.80;;;11.75;;
20369;SDS011;10344;47.592;9.600;2023-03-05T15:33:10;19.35;;;11.40;;
20369;SDS011;10344;47.592;9.600;2023-03-05T15:35:46;16.80;;;11.68;;
20369;SDS011;10344;47.592;9.600;2023-03-05T15:38:11;18.88;;;11.73;;
20369;SDS011;10344;47.592;9.600;2023-03-05T15:40:37;17.25;;;11.35;;
20369;SDS011;10344;47.592;9.600;2023-03-05T15:43:11;16.05;;;10.38;;
20369;SDS011;10344;47.592;9.600;2023-03-05T15:45:37;18.02;;;11.48;;
20369;SDS011;10344;47.592;9.600;2023-03-05T15:48:06;16.55;;;11.30;;
20369;SDS011;10344;47.592;9.600;2023-03-05T15:50:34;16.63;;;10.48;;
20369;SDS011;10344;47.592;9.600;2023-03-05T15:53:00;16.08;;;10.85;;
20369;SDS011;10344;47.592;9.600;2023-03-05T15:55:25;17.00;;;10.90;;
20369;SDS011;10344;47.592;9.600;2023-03-05T15:57:54;15.32;;;10.20;;
20369;SDS011;10344;47.592;9.600;2023-03-05T16:00:27;15.20;;;10.45;;
20369;SDS011;10344;47.592;9.600;2023-03-05T16:02:58;13.80;;;8.73;;
20369;SDS011;10344;47.592;9.600;2023-03-05T16:05:26;16.63;;;10.73;;
20369;SDS011;10344;47.592;9.600;2023-03-05T16:08:08;11.57;;;8.55;;
20369;SDS011;10344;47.592;9.600;2023-03-05T16:10:34;12.32;;;8.30;;
20369;SDS011;10344;47.592;9.600;2023-03-05T16:13:04;13.48;;;9.93;;
20369;SDS011;10344;47.592;9.600;2023-03-05T16:15:33;11.43;;;8.00;;
20369;SDS011;10344;47.592;9.600;2023-03-05T16:18:01;13.60;;;9.00;;
20369;SDS011;10344;47.592;9.600;2023-03-05T16:20:31;15.27;;;10.40;;
20369;SDS011;10344;47.592;9.600;2023-03-05T16:23:00;12.10;;;8.27;;
20369;SDS011;10344;47.592;9.600;2023-03-05T16:25:29;13.00;;;9.32;;
20369;SDS011;10344;47.592;9.600;2023-03-05T16:27:56;11.85;;;9.07;;
20369;SDS011;10344;47.592;9.600;2023-03-05T16:30:31;12.90;;;9.13;;
20369;SDS011;10344;47.592;9.600;2023-03-05T16:32:57;13.85;;;9.73;;
20369;SDS011;10344;47.592;9.600;2023-03-05T16:35:30;11.05;;;8.75;;
20369;SDS011;10344;47.592;9.600;2023-03-05T16:37:55;9.83;;;7.37;;
20369;SDS011;10344;47.592;9.600;2023-03-05T16:40:21;10.45;;;7.68;;
20369;SDS011;10344;47.592;9.600;2023-03-05T16:42:47;8.73;;;6.50;;
20369;SDS011;10344;47.592;9.600;2023-03-05T16:45:12;12.20;;;8.23;;
20369;SDS011;10344;47.592;9.600;2023-03-05T16:47:38;9.63;;;7.10;;
20369;SDS011;10344;47.592;9.600;2023-03-05T16:50:10;12.80;;;8.35;;
20369;SDS011;10344;47.592;9.600;2023-03-05T16:52:38;11.90;;;8.15;;
20369;SDS011;10344;47.592;9.600;2023-03-05T16:55:07;11.10;;;7.85;;
20369;SDS011;10344;47.592;9.600;2023-03-05T16:57:36;9.80;;;7.35;;
20369;SDS011;10344;47.592;9.600;2023-03-05T17:00:02;13.48;;;9.55;;
20369;SDS011;10344;47.592;9.600;2023-03-05T17:02:31;12.52;;;9.05;;
20369;SDS011;10344;47.592;9.600;2023-03-05T17:04:59;9.88;;;6.90;;
20369;SDS011;10344;47.592;9.600;2023-03-05T17:07:27;11.57;;;8.30;;